Time;durP1;ratioP1;P1;durP2;ratioP2;P2;SDS_P1;SDS_P2;PMS_P1;PMS_P2;Temp;Humidity;BMP_temperature;BMP_pressure;BME280_temperature;BME280_humidity;BME280_pressure;Samples;Min_cycle;Max_cycle;Signal;HPM_P1;HPM_P2
2022/06/09 00:01:25;;;;;;;5.77;2.03;;;18.00;77.80;;;;;;4878222;29;20529;-75
2022/06/09 00:03:59;;;;;;;10.63;2.10;;;18.00;77.90;;;;;;4889733;29;20740;-75
2022/06/09 00:06:31;;;;;;;5.67;2.07;;;18.00;77.80;;;;;;4890881;29;20459;-76
2022/06/09 00:09:03;;;;;;;10.77;2.57;;;18.00;77.80;;;;;;4878549;29;20534;-75
2022/06/09 00:11:34;;;;;;;7.83;2.83;;;18.00;77.70;;;;;;4884482;29;20510;-75
2022/06/09 00:14:02;;;;;;;7.90;2.60;;;18.00;77.70;;;;;;4876864;29;20467;-75
2022/06/09 00:16:30;;;;;;;9.97;2.60;;;18.00;77.80;;;;;;4879090;29;20848;-75
2022/06/09 00:19:00;;;;;;;8.40;2.77;;;18.00;77.80;;;;;;4876455;29;20493;-74
2022/06/09 00:21:27;;;;;;;6.50;2.47;;;18.00;77.80;;;;;;4872786;29;20603;-74
2022/06/09 00:23:55;;;;;;;7.33;3.10;;;18.00;77.80;;;;;;4873312;29;20467;-75
2022/06/09 00:26:23;;;;;;;7.43;2.73;;;18.00;77.80;;;;;;4873087;29;20465;-75
2022/06/09 00:28:52;;;;;;;4.80;2.67;;;18.00;77.70;;;;;;4875145;29;20478;-75
2022/06/09 00:31:20;;;;;;;5.60;2.57;;;18.00;77.90;;;;;;4873677;29;21031;-74
2022/06/09 00:33:48;;;;;;;6.37;2.60;;;18.00;78.00;;;;;;4873479;29;21174;-73
2022/06/09 00:36:18;;;;;;;6.10;2.83;;;18.00;78.00;;;;;;4872100;29;20471;-75
2022/06/09 00:38:46;;;;;;;9.43;2.80;;;18.10;78.10;;;;;;4871420;29;20847;-75
2022/06/09 00:41:15;;;;;;;5.63;2.40;;;18.10;78.00;;;;;;4865274;29;20483;-75
2022/06/09 00:43:43;;;;;;;5.80;2.87;;;18.10;78.00;;;;;;4854284;29;20530;-75
2022/06/09 00:46:16;;;;;;;7.70;2.60;;;18.10;78.00;;;;;;4850895;29;20564;-76
2022/06/09 00:48:47;;;;;;;6.00;2.80;;;18.10;78.00;;;;;;4872735;29;20565;-74
2022/06/09 00:51:28;;;;;;;4.60;2.70;;;18.10;78.10;;;;;;4871862;29;21021;-75
2022/06/09 00:54:02;;;;;;;7.53;3.23;;;18.10;78.10;;;;;;4875840;29;20519;-75
2022/06/09 00:56:30;;;;;;;9.10;2.77;;;18.10;78.10;;;;;;4874190;29;20467;-75
2022/06/09 00:58:58;;;;;;;10.50;3.00;;;18.10;78.10;;;;;;4879280;29;20490;-75
2022/06/09 01:01:28;;;;;;;6.23;3.37;;;18.10;78.10;;;;;;4878986;29;20848;-74
2022/06/09 01:04:02;;;;;;;8.30;2.67;;;18.10;78.10;;;;;;4885994;29;20501;-74
2022/06/09 01:06:38;;;;;;;5.70;2.97;;;18.10;78.10;;;;;;4884478;29;20470;-75
2022/06/09 01:09:09;;;;;;;5.80;2.60;;;18.10;78.10;;;;;;4868126;29;20495;-74
2022/06/09 01:11:38;;;;;;;9.50;3.43;;;18.00;78.20;;;;;;4873721;29;21323;-74
2022/06/09 01:14:08;;;;;;;6.20;2.90;;;18.00;78.20;;;;;;4867724;29;20480;-76
2022/06/09 01:16:45;;;;;;;10.90;3.00;;;18.00;78.30;;;;;;4876696;29;20570;-74
2022/06/09 01:19:33;;;;;;;5.03;2.50;;;18.10;78.30;;;;;;4855825;29;21029;-75
2022/06/09 01:22:30;;;;;;;9.13;3.03;;;18.10;78.40;;;;;;4867593;29;20460;-74
2022/06/09 01:25:45;;;;;;;8.90;3.17;;;18.10;78.30;;;;;;4874797;29;20478;-75
2022/06/09 01:28:51;;;;;;;8.93;3.30;;;18.10;78.30;;;;;;4876254;29;20486;-74
2022/06/09 01:31:29;;;;;;;10.50;3.23;;;18.00;78.30;;;;;;4874958;29;20499;-74
2022/06/09 01:34:06;;;;;;;18.73;3.07;;;18.00;78.40;;;;;;4880007;29;20581;-74
2022/06/09 01:36:41;;;;;;;7.10;3.10;;;18.00;78.40;;;;;;4877964;29;20459;-74
2022/06/09 01:39:09;;;;;;;5.53;3.20;;;18.00;78.50;;;;;;4877580;29;20526;-75
2022/06/09 01:41:46;;;;;;;7.10;3.17;;;18.10;78.50;;;;;;4863895;29;20463;-75
2022/06/09 01:44:16;;;;;;;6.70;2.90;;;18.10;78.50;;;;;;4879932;29;20502;-75
2022/06/09 01:46:47;;;;;;;5.80;3.00;;;18.10;78.50;;;;;;4879580;29;20478;-74
2022/06/09 01:49:20;;;;;;;5.77;2.90;;;18.10;78.50;;;;;;4870264;29;20594;-75
2022/06/09 01:51:51;;;;;;;8.90;3.83;;;18.10;78.50;;;;;;4876545;29;20496;-73
2022/06/09 01:54:24;;;;;;;6.40;3.43;;;18.10;78.50;;;;;;4872759;29;20467;-76
2022/06/09 01:56:58;;;;;;;5.70;3.47;;;18.10;78.60;;;;;;4860880;29;20557;-74
2022/06/09 01:59:30;;;;;;;7.80;3.30;;;18.10;78.60;;;;;;4874337;29;20499;-74
2022/06/09 02:02:05;;;;;;;5.80;3.20;;;18.10;78.60;;;;;;4879933;29;20946;-74
2022/06/09 02:04:37;;;;;;;8.93;3.00;;;18.00;78.60;;;;;;4857759;29;20471;-74
2022/06/09 02:07:07;;;;;;;5.67;3.00;;;18.00;78.70;;;;;;4875159;29;20461;-76
2022/06/09 02:09:38;;;;;;;7.80;2.93;;;18.00;78.70;;;;;;4878206;29;20890;-75
2022/06/09 02:12:10;;;;;;;6.70;3.30;;;18.00;78.70;;;;;;4876651;29;20481;-74
2022/06/09 02:14:47;;;;;;;7.07;3.30;;;18.00;78.70;;;;;;4879897;29;20463;-74
2022/06/09 02:17:17;;;;;;;7.50;2.70;;;18.00;78.70;;;;;;4873341;29;21157;-75
2022/06/09 02:19:47;;;;;;;8.57;3.47;;;18.00;78.70;;;;;;4880603;29;20487;-75
2022/06/09 02:22:16;;;;;;;8.60;5.00;;;18.00;78.70;;;;;;4871680;29;20455;-74
2022/06/09 02:24:44;;;;;;;7.20;4.60;;;18.00;78.70;;;;;;4879319;29;20543;-75
2022/06/09 02:27:14;;;;;;;7.50;4.13;;;18.00;78.70;;;;;;4877122;29;21336;-75
2022/06/09 02:29:42;;;;;;;6.10;3.50;;;18.00;78.80;;;;;;4875996;29;20833;-75
2022/06/09 02:32:09;;;;;;;5.63;3.13;;;18.00;78.90;;;;;;4876287;29;20491;-75
2022/06/09 02:34:39;;;;;;;11.10;3.60;;;18.00;78.90;;;;;;4877264;29;20474;-74
2022/06/09 02:37:07;;;;;;;15.47;4.00;;;18.00;78.90;;;;;;4877109;29;20470;-75
2022/06/09 02:39:35;;;;;;;6.60;3.80;;;18.00;78.90;;;;;;4859369;29;20456;-75
2022/06/09 02:42:03;;;;;;;6.50;3.20;;;18.00;78.90;;;;;;4886827;29;20462;-75
2022/06/09 02:44:31;;;;;;;11.30;4.00;;;18.00;78.90;;;;;;4881378;29;20479;-75
2022/06/09 02:46:59;;;;;;;13.13;3.63;;;18.00;78.90;;;;;;4858697;29;20497;-74
2022/06/09 02:49:27;;;;;;;8.10;4.40;;;18.00;78.90;;;;;;4883990;29;20509;-74
2022/06/09 02:51:57;;;;;;;8.90;3.77;;;18.00;78.90;;;;;;4889374;29;20498;-76
2022/06/09 02:54:25;;;;;;;11.00;4.30;;;18.00;78.90;;;;;;4883498;29;20463;-74
2022/06/09 02:56:53;;;;;;;10.57;4.57;;;18.00;78.90;;;;;;4882214;29;20481;-75
2022/06/09 02:59:21;;;;;;;6.37;3.80;;;18.00;79.00;;;;;;4886831;29;20478;-75
2022/06/09 03:01:49;;;;;;;11.70;5.43;;;17.90;79.00;;;;;;4890284;29;20499;-75
2022/06/09 03:04:17;;;;;;;8.83;4.53;;;17.90;79.00;;;;;;4890212;29;20553;-75
2022/06/09 03:06:45;;;;;;;7.60;4.50;;;17.90;79.00;;;;;;4889519;29;20474;-74
2022/06/09 03:09:15;;;;;;;9.10;5.03;;;17.90;79.00;;;;;;4890014;29;21002;-75
2022/06/09 03:11:42;;;;;;;7.77;4.60;;;17.90;79.10;;;;;;4884619;29;20469;-75
2022/06/09 03:14:10;;;;;;;11.10;5.50;;;17.90;79.10;;;;;;4890804;29;20951;-75
2022/06/09 03:16:39;;;;;;;8.90;5.77;;;17.90;79.10;;;;;;4880475;29;20491;-74
2022/06/09 03:19:07;;;;;;;6.10;4.50;;;17.90;79.10;;;;;;4891014;29;20548;-75
2022/06/09 03:21:35;;;;;;;8.10;4.57;;;17.90;79.10;;;;;;4891100;29;20470;-75
2022/06/09 03:24:04;;;;;;;9.63;5.13;;;17.90;79.00;;;;;;4882320;29;20462;-75
2022/06/09 03:26:33;;;;;;;7.00;4.73;;;17.90;79.00;;;;;;4885880;29;21060;-75
2022/06/09 03:29:01;;;;;;;8.27;5.43;;;17.90;79.10;;;;;;4866899;29;20487;-74
2022/06/09 03:31:29;;;;;;;9.03;5.00;;;17.90;79.10;;;;;;4886709;29;20486;-74
2022/06/09 03:33:57;;;;;;;10.73;5.10;;;17.80;79.10;;;;;;4883605;29;20541;-75
2022/06/09 03:36:25;;;;;;;8.87;5.37;;;17.80;79.00;;;;;;4881378;29;21238;-75
2022/06/09 03:38:53;;;;;;;11.47;5.87;;;17.80;79.00;;;;;;4887899;29;21146;-75
2022/06/09 03:41:21;;;;;;;6.80;5.00;;;17.80;79.00;;;;;;4887962;29;20454;-75
2022/06/09 03:43:50;;;;;;;8.43;5.37;;;17.80;79.00;;;;;;4885829;29;20578;-75
2022/06/09 03:46:18;;;;;;;12.87;5.33;;;17.70;79.00;;;;;;4883015;29;20483;-76
2022/06/09 03:48:46;;;;;;;8.67;5.33;;;17.70;79.00;;;;;;4863591;29;20548;-77
2022/06/09 03:51:14;;;;;;;10.70;5.27;;;17.70;79.10;;;;;;4889245;29;20458;-75
2022/06/09 03:53:42;;;;;;;8.00;4.33;;;17.70;79.10;;;;;;4884236;29;21310;-75
2022/06/09 03:56:14;;;;;;;13.63;4.67;;;17.70;79.10;;;;;;4887847;29;20498;-75
2022/06/09 03:58:42;;;;;;;8.60;4.60;;;17.70;79.10;;;;;;4887985;29;20906;-74
2022/06/09 04:01:13;;;;;;;10.50;4.13;;;17.70;79.00;;;;;;4872172;29;20505;-74
2022/06/09 04:03:41;;;;;;;8.67;4.80;;;17.70;79.00;;;;;;4891973;29;20527;-76
2022/06/09 04:06:13;;;;;;;11.10;4.80;;;17.70;79.00;;;;;;4884314;29;20466;-76
2022/06/09 04:08:41;;;;;;;6.57;3.80;;;17.70;79.10;;;;;;4891689;29;20995;-76
2022/06/09 04:11:10;;;;;;;10.27;4.77;;;17.70;79.00;;;;;;4877908;29;20463;-75
2022/06/09 04:13:38;;;;;;;8.97;4.00;;;17.70;79.00;;;;;;4888693;29;21012;-76
2022/06/09 04:16:19;;;;;;;6.77;3.63;;;17.70;79.10;;;;;;4886905;29;20491;-74
2022/06/09 04:18:47;;;;;;;9.70;3.70;;;17.70;79.10;;;;;;4891750;29;20907;-75
2022/06/09 04:21:16;;;;;;;6.97;3.93;;;17.80;79.10;;;;;;4869857;29;20460;-75
2022/06/09 04:23:44;;;;;;;6.40;3.20;;;17.80;79.10;;;;;;4887680;29;20467;-75
2022/06/09 04:26:15;;;;;;;6.23;3.73;;;17.90;79.20;;;;;;4893817;29;20897;-75
2022/06/09 04:28:43;;;;;;;5.50;3.00;;;17.90;79.10;;;;;;4869857;29;20558;-74
2022/06/09 04:31:13;;;;;;;6.40;3.43;;;18.00;79.00;;;;;;4889059;29;20485;-75
2022/06/09 04:33:43;;;;;;;5.80;3.17;;;18.00;79.30;;;;;;4886107;29;20626;-77
2022/06/09 04:36:12;;;;;;;6.57;3.07;;;18.10;79.10;;;;;;4893401;29;20985;-75
2022/06/09 04:38:41;;;;;;;8.00;3.10;;;18.20;79.10;;;;;;4884028;29;20490;-75
2022/06/09 04:41:11;;;;;;;5.33;2.60;;;18.30;79.00;;;;;;4888536;29;21180;-75
2022/06/09 04:43:40;;;;;;;8.90;3.20;;;18.30;78.90;;;;;;4889921;29;20455;-75
2022/06/09 04:46:10;;;;;;;6.20;2.87;;;18.40;78.80;;;;;;4884390;29;20498;-75
2022/06/09 04:48:39;;;;;;;6.27;3.00;;;18.40;78.70;;;;;;4890488;29;20483;-74
2022/06/09 04:51:10;;;;;;;7.70;3.47;;;18.40;78.50;;;;;;4873647;29;20486;-74
2022/06/09 04:53:38;;;;;;;7.83;3.80;;;18.50;78.50;;;;;;4885379;29;20494;-73
2022/06/09 04:56:08;;;;;;;5.23;2.70;;;18.50;78.40;;;;;;4885564;29;20485;-74
2022/06/09 04:58:38;;;;;;;7.57;3.40;;;18.50;78.50;;;;;;4880474;29;21112;-75
2022/06/09 05:01:06;;;;;;;6.13;3.10;;;18.60;78.40;;;;;;4884714;29;21123;-75
2022/06/09 05:03:35;;;;;;;6.43;3.07;;;18.60;78.30;;;;;;4885365;29;20549;-76
2022/06/09 05:06:04;;;;;;;7.20;3.43;;;18.70;78.30;;;;;;4886432;29;20485;-75
2022/06/09 05:08:33;;;;;;;6.00;2.73;;;18.80;78.20;;;;;;4873000;29;20491;-75
2022/06/09 05:11:01;;;;;;;7.53;3.30;;;18.80;78.10;;;;;;4879708;29;20490;-75
2022/06/09 05:13:29;;;;;;;8.20;3.20;;;18.90;78.10;;;;;;4879207;29;21028;-74
2022/06/09 05:15:57;;;;;;;6.10;2.80;;;19.00;78.10;;;;;;4887054;29;20471;-74
2022/06/09 05:18:28;;;;;;;7.07;2.80;;;19.10;78.10;;;;;;4882157;29;20488;-75
2022/06/09 05:20:57;;;;;;;5.40;2.40;;;19.20;78.10;;;;;;4889932;29;20470;-74
2022/06/09 05:23:26;;;;;;;5.77;2.80;;;19.30;77.90;;;;;;4878620;29;20456;-75
2022/06/09 05:25:57;;;;;;;8.07;3.50;;;19.40;77.80;;;;;;4878835;29;20487;-75
2022/06/09 05:28:28;;;;;;;10.77;2.87;;;19.60;77.80;;;;;;4886523;29;20479;-75
2022/06/09 05:30:56;;;;;;;7.63;2.67;;;19.70;77.60;;;;;;4877973;29;20504;-75
2022/06/09 05:33:24;;;;;;;7.30;2.77;;;19.80;77.90;;;;;;4885759;29;20518;-75
2022/06/09 05:35:52;;;;;;;9.37;2.93;;;20.00;78.50;;;;;;4863332;29;20486;-75
2022/06/09 05:46:46;;;;;;;6.40;2.33;;;21.90;73.30;;;;;;4876505;29;21027;-75
2022/06/09 05:49:16;;;;;;;6.70;2.83;;;21.60;72.40;;;;;;4877462;29;20518;-75
2022/06/09 05:51:44;;;;;;;6.97;3.00;;;21.30;72.60;;;;;;4888212;29;20987;-75
2022/06/09 05:54:12;;;;;;;4.83;2.37;;;21.10;72.60;;;;;;4857939;29;20491;-75
2022/06/09 05:56:42;;;;;;;8.10;2.90;;;20.90;72.80;;;;;;4873226;29;20465;-75
2022/06/09 05:59:10;;;;;;;7.23;2.70;;;20.60;73.00;;;;;;4884071;29;20487;-75
2022/06/09 06:01:38;;;;;;;6.07;2.13;;;20.50;73.20;;;;;;4877520;29;20484;-75
2022/06/09 06:04:08;;;;;;;7.03;3.00;;;20.30;73.40;;;;;;4886076;29;20460;-75
2022/06/09 06:06:37;;;;;;;6.30;2.50;;;20.20;73.60;;;;;;4881023;29;20476;-75
2022/06/09 06:09:12;;;;;;;6.80;2.77;;;20.10;73.60;;;;;;4874038;29;21008;-75
2022/06/09 06:11:43;;;;;;;7.60;2.53;;;20.00;73.50;;;;;;4888196;29;20554;-75
2022/06/09 06:14:11;;;;;;;6.43;2.23;;;19.80;73.60;;;;;;4870216;29;20486;-75
2022/06/09 06:16:41;;;;;;;7.73;2.40;;;19.60;73.70;;;;;;4880403;29;20504;-75
2022/06/09 06:19:12;;;;;;;6.30;2.70;;;19.50;74.00;;;;;;4888287;29;20570;-75
2022/06/09 06:21:41;;;;;;;7.07;2.33;;;19.50;74.50;;;;;;4874942;29;20893;-74
2022/06/09 06:24:10;;;;;;;6.80;2.20;;;19.40;74.70;;;;;;4878362;29;20450;-75
2022/06/09 06:26:39;;;;;;;5.80;2.30;;;19.40;74.70;;;;;;4874098;29;20486;-75
2022/06/09 06:29:14;;;;;;;5.03;2.30;;;19.40;74.60;;;;;;4874484;29;21209;-75
2022/06/09 06:31:42;;;;;;;6.87;2.60;;;19.40;74.60;;;;;;4880730;29;20898;-75
2022/06/09 06:34:10;;;;;;;5.50;2.20;;;19.30;74.50;;;;;;4875512;29;20483;-75
2022/06/09 06:36:38;;;;;;;7.63;2.67;;;19.30;74.50;;;;;;4875344;29;20838;-75
2022/06/09 06:39:06;;;;;;;5.90;2.20;;;19.20;74.60;;;;;;4880206;29;20491;-74
2022/06/09 06:41:34;;;;;;;8.70;2.50;;;19.20;74.60;;;;;;4889267;29;20455;-75
2022/06/09 06:44:03;;;;;;;6.83;2.33;;;19.20;74.70;;;;;;4875414;29;20542;-75
2022/06/09 06:46:32;;;;;;;6.30;2.70;;;19.20;74.70;;;;;;4875408;29;20583;-74
2022/06/09 06:49:00;;;;;;;8.40;2.53;;;19.20;74.70;;;;;;4877948;29;20490;-73
2022/06/09 06:51:28;;;;;;;8.70;2.40;;;19.20;74.60;;;;;;4887442;29;20503;-75
2022/06/09 06:53:56;;;;;;;5.77;2.20;;;19.10;74.70;;;;;;4881197;29;20502;-74
2022/06/09 06:56:24;;;;;;;7.57;2.57;;;19.10;74.60;;;;;;4879339;29;20493;-74
2022/06/09 06:58:52;;;;;;;6.00;2.13;;;19.10;74.50;;;;;;4887032;29;20498;-74
2022/06/09 07:01:20;;;;;;;4.33;2.20;;;19.00;74.60;;;;;;4881308;29;20494;-74
2022/06/09 07:03:50;;;;;;;6.50;2.43;;;19.00;74.50;;;;;;4885612;29;20472;-74
2022/06/09 07:06:18;;;;;;;6.53;2.37;;;18.90;74.50;;;;;;4886316;29;20459;-74
2022/06/09 07:08:45;;;;;;;6.63;2.40;;;18.80;74.70;;;;;;4883543;29;20489;-75
2022/06/09 07:11:14;;;;;;;7.70;2.70;;;18.80;75.00;;;;;;4881243;29;20475;-73
2022/06/09 07:13:43;;;;;;;6.50;2.80;;;18.90;75.00;;;;;;4876906;29;20499;-75
2022/06/09 07:16:12;;;;;;;6.70;2.63;;;19.00;75.10;;;;;;4882370;29;21044;-76
2022/06/09 07:19:01;;;;;;;8.20;3.00;;;19.00;75.10;;;;;;4863836;29;20541;-74
2022/06/09 07:21:29;;;;;;;7.87;2.80;;;19.10;75.00;;;;;;4887349;29;20466;-74
2022/06/09 07:23:57;;;;;;;6.20;2.60;;;19.20;75.10;;;;;;4878067;29;20482;-75
2022/06/09 07:26:26;;;;;;;8.90;2.97;;;19.30;75.10;;;;;;4870737;29;21035;-75
2022/06/09 07:28:54;;;;;;;6.90;3.00;;;19.40;75.20;;;;;;4888601;29;20995;-75
2022/06/09 07:31:22;;;;;;;10.40;2.90;;;19.50;75.10;;;;;;4865037;29;20491;-75
2022/06/09 07:33:50;;;;;;;5.87;2.33;;;19.50;74.90;;;;;;4890220;29;20823;-75
2022/06/09 07:36:22;;;;;;;6.87;3.40;;;19.50;74.70;;;;;;4881202;29;20473;-75
2022/06/09 07:38:50;;;;;;;5.83;2.80;;;19.50;74.10;;;;;;4881423;29;20495;-74
2022/06/09 07:41:20;;;;;;;5.50;2.40;;;19.40;74.30;;;;;;4863515;29;20473;-75
2022/06/09 07:43:59;;;;;;;8.07;2.73;;;19.30;74.40;;;;;;4866887;29;20463;-75
2022/06/09 07:46:27;;;;;;;6.70;2.77;;;19.20;74.40;;;;;;4884113;29;20893;-75
2022/06/09 07:48:56;;;;;;;4.93;2.80;;;19.20;74.40;;;;;;4869846;29;20496;-74
2022/06/09 07:51:26;;;;;;;9.70;2.80;;;19.10;74.50;;;;;;4872076;29;20470;-74
2022/06/09 07:53:54;;;;;;;5.50;2.90;;;19.10;74.70;;;;;;4881604;29;20945;-75
2022/06/09 07:56:23;;;;;;;6.87;3.20;;;19.10;74.80;;;;;;4880710;29;20482;-76
2022/06/09 07:58:51;;;;;;;4.80;2.60;;;19.10;74.80;;;;;;4887961;29;20492;-74
2022/06/09 08:01:22;;;;;;;7.17;2.57;;;19.20;74.90;;;;;;4877942;29;20486;-74
2022/06/09 08:03:50;;;;;;;8.47;2.17;;;19.20;74.70;;;;;;4883920;29;20561;-74
2022/06/09 08:06:18;;;;;;;8.90;2.30;;;19.30;74.60;;;;;;4890607;29;20462;-75
2022/06/09 08:08:56;;;;;;;6.23;2.43;;;19.20;74.10;;;;;;4882343;29;20500;-75
2022/06/09 08:11:26;;;;;;;5.27;1.90;;;19.20;74.10;;;;;;4883154;29;20465;-74
2022/06/09 08:13:55;;;;;;;5.80;2.30;;;19.10;74.20;;;;;;4882173;29;20478;-75
2022/06/09 08:16:24;;;;;;;9.03;2.00;;;19.10;74.20;;;;;;4890226;29;20529;-75
2022/06/09 08:18:52;;;;;;;6.07;1.90;;;19.10;74.20;;;;;;4877149;29;20483;-74
2022/06/09 08:21:21;;;;;;;5.23;2.00;;;19.10;73.40;;;;;;4886130;29;20982;-75
2022/06/09 08:24:09;;;;;;;7.50;1.80;;;19.10;73.70;;;;;;4856795;29;20499;-74
2022/06/09 08:26:37;;;;;;;5.83;1.97;;;19.10;74.00;;;;;;4885244;29;20477;-74
2022/06/09 08:29:05;;;;;;;7.47;2.70;;;19.10;73.80;;;;;;4892503;29;20506;-75
2022/06/09 08:31:33;;;;;;;5.80;1.90;;;19.20;73.70;;;;;;4861551;29;20538;-75
2022/06/09 08:34:02;;;;;;;6.10;2.30;;;19.20;73.60;;;;;;4873073;29;20561;-75
2022/06/09 08:36:30;;;;;;;8.30;1.93;;;19.20;73.50;;;;;;4882293;29;20508;-74
2022/06/09 08:38:58;;;;;;;4.80;1.60;;;19.20;73.40;;;;;;4876355;29;20493;-74
2022/06/09 08:41:39;;;;;;;7.53;2.33;;;19.20;73.50;;;;;;4891466;29;20810;-74
2022/06/09 08:44:17;;;;;;;4.83;1.40;;;19.30;73.20;;;;;;4877974;29;21031;-74
2022/06/09 08:46:54;;;;;;;4.17;1.40;;;19.30;73.10;;;;;;4887249;29;20470;-74
2022/06/09 08:49:32;;;;;;;7.33;1.70;;;19.30;73.10;;;;;;4891525;29;20516;-74
2022/06/09 08:52:04;;;;;;;4.47;1.80;;;19.40;73.00;;;;;;4890991;29;20455;-74
2022/06/09 08:54:35;;;;;;;4.63;1.53;;;19.40;72.80;;;;;;4892504;29;20464;-73
2022/06/09 08:57:13;;;;;;;5.07;1.73;;;19.50;72.80;;;;;;4878840;29;20472;-74
2022/06/09 08:59:43;;;;;;;6.30;1.40;;;19.50;72.50;;;;;;4888834;29;20486;-73
2022/06/09 09:02:21;;;;;;;6.60;1.97;;;19.50;72.50;;;;;;4889468;29;20489;-74
2022/06/09 09:04:55;;;;;;;4.93;1.93;;;19.60;72.20;;;;;;4878076;29;20485;-73
2022/06/09 09:07:27;;;;;;;3.60;1.50;;;19.60;72.40;;;;;;4883070;29;21001;-73
2022/06/09 09:09:57;;;;;;;6.50;1.80;;;19.60;72.40;;;;;;4871272;29;20854;-73
2022/06/09 09:12:34;;;;;;;6.40;1.83;;;19.70;72.20;;;;;;4878418;29;20827;-75
2022/06/09 09:15:13;;;;;;;7.80;1.70;;;19.70;71.40;;;;;;4886650;29;20491;-74
2022/06/09 09:17:48;;;;;;;5.57;1.30;;;19.60;71.40;;;;;;4881678;29;20487;-75
2022/06/09 09:20:23;;;;;;;5.57;1.80;;;19.60;71.80;;;;;;4885209;29;21011;-74
2022/06/09 09:23:02;;;;;;;5.10;1.70;;;19.60;71.40;;;;;;4890107;29;20452;-75
2022/06/09 09:25:42;;;;;;;5.90;1.87;;;19.60;71.90;;;;;;4878460;29;20889;-73
2022/06/09 09:28:18;;;;;;;7.53;2.00;;;19.70;71.90;;;;;;4883723;29;20533;-74
2022/06/09 09:30:59;;;;;;;7.20;1.50;;;19.80;71.70;;;;;;4886997;29;20476;-74
2022/06/09 09:33:28;;;;;;;4.67;1.67;;;20.00;71.60;;;;;;4888391;29;20466;-74
2022/06/09 09:36:01;;;;;;;5.20;1.60;;;20.00;71.50;;;;;;4888924;29;20502;-74
2022/06/09 09:38:36;;;;;;;5.63;1.53;;;20.00;71.20;;;;;;4868783;29;20494;-73
2022/06/09 09:41:04;;;;;;;8.07;1.80;;;20.10;71.40;;;;;;4877357;29;20647;-75
2022/06/09 09:43:40;;;;;;;5.07;2.10;;;20.10;71.00;;;;;;4885753;29;20817;-74
2022/06/09 09:46:21;;;;;;;9.50;1.50;;;20.20;70.90;;;;;;4855892;29;20476;-75
2022/06/09 09:48:49;;;;;;;6.27;1.60;;;20.20;69.60;;;;;;4869006;29;20491;-74
2022/06/09 09:51:30;;;;;;;6.40;1.40;;;20.20;70.20;;;;;;4869817;29;20473;-75
2022/06/09 09:53:58;;;;;;;8.53;1.90;;;20.20;70.00;;;;;;4872409;29;20461;-75
2022/06/09 09:56:33;;;;;;;5.23;1.57;;;20.20;69.80;;;;;;4875065;29;20486;-74
2022/06/09 09:59:16;;;;;;;7.13;1.67;;;20.20;69.60;;;;;;4874563;29;21002;-75
2022/06/09 10:08:41;;;;;;;5.33;1.40;;;20.10;69.30;;;;;;4879362;29;20671;-74
2022/06/09 10:14:45;;;;;;;4.70;1.40;;;20.00;69.20;;;;;;4880183;29;20467;-75
2022/06/09 10:17:29;;;;;;;5.30;1.50;;;20.00;69.10;;;;;;4878500;29;20507;-74
2022/06/09 10:20:29;;;;;;;10.10;1.87;;;20.10;69.10;;;;;;4877563;29;20520;-74
2022/06/09 10:23:01;;;;;;;7.20;1.70;;;20.20;69.00;;;;;;4888164;29;20470;-74
2022/06/09 10:25:36;;;;;;;6.40;1.50;;;20.10;68.60;;;;;;4881924;29;20453;-74
2022/06/09 10:28:13;;;;;;;6.93;2.00;;;20.00;68.60;;;;;;4882361;29;20507;-74
2022/06/09 10:30:47;;;;;;;6.20;1.87;;;19.90;68.80;;;;;;4882577;29;20466;-74
2022/06/09 10:33:32;;;;;;;4.93;1.80;;;19.80;68.90;;;;;;4869658;29;20740;-74
2022/06/09 10:36:07;;;;;;;4.90;1.60;;;19.70;68.90;;;;;;4873128;29;20496;-75
2022/06/09 10:38:39;;;;;;;5.13;1.60;;;19.60;69.00;;;;;;4879631;29;20485;-75
2022/06/09 10:41:13;;;;;;;7.37;2.10;;;19.60;69.10;;;;;;4877320;29;20471;-74
2022/06/09 10:43:47;;;;;;;4.80;1.93;;;19.50;69.20;;;;;;4851750;29;20461;-74
2022/06/09 10:46:29;;;;;;;7.30;1.83;;;19.50;69.40;;;;;;4869146;29;21259;-74
2022/06/09 10:57:41;;;;;;;7.90;1.83;;;19.70;70.00;;;;;;4868794;29;20511;-74
2022/06/09 11:00:15;;;;;;;5.33;1.30;;;19.80;70.10;;;;;;4875497;29;20475;-74
2022/06/09 11:02:49;;;;;;;5.03;1.50;;;20.00;70.10;;;;;;4859247;29;20476;-74
2022/06/09 11:05:21;;;;;;;6.47;1.90;;;20.10;70.00;;;;;;4877065;29;20457;-74
2022/06/09 11:08:00;;;;;;;4.20;1.63;;;20.10;70.00;;;;;;4878480;29;20475;-74
2022/06/09 11:10:39;;;;;;;10.03;2.20;;;20.20;69.90;;;;;;4877509;29;20490;-72
2022/06/09 11:13:36;;;;;;;7.00;2.00;;;20.20;69.80;;;;;;4875734;29;20984;-74
2022/06/09 11:16:14;;;;;;;5.47;1.97;;;20.30;70.10;;;;;;4882816;29;20551;-75
2022/06/09 11:18:52;;;;;;;8.40;2.23;;;20.40;70.20;;;;;;4889316;29;20474;-75
2022/06/09 11:21:25;;;;;;;6.33;2.03;;;20.50;70.10;;;;;;4888111;29;20502;-75
2022/06/09 11:24:06;;;;;;;8.60;3.07;;;20.60;69.90;;;;;;4895450;29;20815;-75
2022/06/09 11:26:42;;;;;;;10.07;2.67;;;20.60;69.90;;;;;;4879313;29;20465;-74
2022/06/09 11:29:26;;;;;;;5.23;1.50;;;20.60;70.00;;;;;;4883975;29;20507;-73
2022/06/09 11:32:04;;;;;;;5.83;1.70;;;20.60;68.90;;;;;;4866936;29;20509;-75
2022/06/09 11:35:04;;;;;;;5.60;1.70;;;20.40;68.80;;;;;;4891191;29;20515;-75
2022/06/09 11:37:54;;;;;;;5.83;1.73;;;20.20;68.80;;;;;;4853768;29;20501;-74
2022/06/09 11:40:33;;;;;;;4.60;1.30;;;20.00;69.60;;;;;;4886446;29;20461;-74
2022/06/09 11:43:14;;;;;;;5.97;1.73;;;20.00;69.90;;;;;;4878627;29;20461;-74
2022/06/09 11:45:51;;;;;;;7.03;2.43;;;20.10;70.10;;;;;;4884954;29;21343;-74
2022/06/09 11:48:25;;;;;;;6.50;2.17;;;20.20;70.30;;;;;;4882796;29;20488;-74
2022/06/09 11:50:56;;;;;;;6.07;2.37;;;20.20;70.20;;;;;;4884808;29;20449;-74
2022/06/09 11:53:28;;;;;;;5.20;2.40;;;20.20;70.40;;;;;;4875380;29;20475;-74
2022/06/09 11:56:34;;;;;;;8.20;2.23;;;20.30;70.60;;;;;;4872453;29;20464;-74
2022/06/09 11:59:14;;;;;;;8.53;2.70;;;20.30;70.60;;;;;;4871963;29;20857;-74
2022/06/09 12:01:50;;;;;;;6.20;2.13;;;20.30;70.70;;;;;;4871605;29;20501;-76
2022/06/09 12:04:48;;;;;;;5.73;1.77;;;20.20;70.70;;;;;;4882637;29;20470;-74
2022/06/09 12:07:32;;;;;;;7.50;1.90;;;20.20;70.70;;;;;;4886847;29;20951;-73
2022/06/09 12:10:22;;;;;;;6.10;2.30;;;20.20;70.60;;;;;;4884210;29;20969;-74
2022/06/09 12:13:07;;;;;;;6.73;2.10;;;20.20;70.90;;;;;;4877805;29;20463;-74
2022/06/09 12:15:49;;;;;;;8.77;2.20;;;20.20;70.90;;;;;;4867569;29;20467;-75
2022/06/09 12:18:33;;;;;;;4.90;1.97;;;20.30;70.80;;;;;;4859280;29;20491;-75
2022/06/09 12:21:11;;;;;;;5.43;2.20;;;20.30;70.20;;;;;;4882464;29;20471;-74
2022/06/09 12:23:44;;;;;;;6.90;2.07;;;20.20;70.20;;;;;;4868525;29;20468;-74
2022/06/09 12:26:29;;;;;;;15.63;1.83;;;20.20;70.40;;;;;;4865257;29;20459;-75
2022/06/09 12:29:19;;;;;;;6.50;1.93;;;20.20;70.40;;;;;;4886483;29;20903;-75
2022/06/09 12:32:36;;;;;;;6.10;1.93;;;20.30;70.50;;;;;;4893157;29;20504;-73
2022/06/09 12:35:15;;;;;;;6.07;2.27;;;20.40;70.40;;;;;;4880888;29;21304;-73
2022/06/09 12:37:52;;;;;;;4.63;2.50;;;20.40;70.40;;;;;;4870713;29;20491;-73
2022/06/09 12:40:26;;;;;;;13.10;3.10;;;20.40;70.30;;;;;;4890763;29;20948;-73
2022/06/09 12:42:57;;;;;;;6.23;2.00;;;20.40;70.40;;;;;;4889799;29;20484;-75
2022/06/09 12:45:28;;;;;;;6.50;1.90;;;20.40;70.50;;;;;;4885123;29;20478;-74
2022/06/09 12:47:59;;;;;;;11.33;2.60;;;20.40;70.60;;;;;;4887007;29;20490;-75
2022/06/09 12:50:38;;;;;;;9.87;2.57;;;20.50;70.60;;;;;;4872496;29;20502;-74
2022/06/09 12:53:08;;;;;;;8.87;3.87;;;20.50;70.70;;;;;;4888163;29;20497;-74
2022/06/09 12:55:43;;;;;;;6.87;2.13;;;20.60;70.50;;;;;;4892304;29;20945;-73
2022/06/09 12:58:20;;;;;;;5.80;2.00;;;20.60;70.50;;;;;;4885080;29;20502;-75
2022/06/09 13:00:52;;;;;;;5.90;2.33;;;20.60;70.10;;;;;;4861102;29;20506;-75
2022/06/09 13:03:29;;;;;;;5.63;1.50;;;20.50;70.20;;;;;;4873729;29;20476;-74
2022/06/09 13:06:09;;;;;;;4.47;1.40;;;20.40;70.20;;;;;;4850837;29;20996;-75
2022/06/09 13:08:45;;;;;;;4.50;1.47;;;20.40;69.50;;;;;;4862803;29;20911;-74
2022/06/09 13:12:50;;;;;;;3.90;1.27;;;20.30;69.20;;;;;;4865234;29;20476;-74
2022/06/09 13:14:10;;;;;;;3.80;1.30;;;20.20;68.30;;;;;;4868211;29;20472;-74
2022/06/09 13:16:44;;;;;;;4.00;1.63;;;20.10;68.40;;;;;;4870931;29;20538;-74
2022/06/09 13:19:14;;;;;;;6.57;2.90;;;20.00;68.50;;;;;;4863461;29;20903;-74
2022/06/09 13:21:44;;;;;;;8.60;1.63;;;20.00;68.90;;;;;;4868869;29;20826;-75
2022/06/09 13:24:23;;;;;;;5.20;1.13;;;20.00;69.10;;;;;;4870155;29;20468;-74
2022/06/09 13:26:52;;;;;;;5.87;1.47;;;20.00;69.20;;;;;;4872673;29;20480;-74
2022/06/09 13:29:24;;;;;;;6.90;1.70;;;20.10;69.00;;;;;;4870454;29;20509;-74
2022/06/09 13:31:54;;;;;;;6.77;1.90;;;20.10;68.90;;;;;;4866389;29;20503;-74
2022/06/09 13:34:31;;;;;;;4.77;1.67;;;20.10;69.00;;;;;;4869097;29;20464;-75
2022/06/09 13:37:09;;;;;;;5.30;1.70;;;20.00;69.10;;;;;;4869372;29;20513;-75
2022/06/09 13:39:44;;;;;;;4.40;1.87;;;20.00;69.40;;;;;;4867573;29;20592;-74
2022/06/09 13:42:20;;;;;;;5.90;2.30;;;20.00;69.70;;;;;;4866106;29;20470;-74